Time;durP1;ratioP1;P1;durP2;ratioP2;P2;SDS_P1;SDS_P2;PMS_P1;PMS_P2;Temp;Humidity;BMP_temperature;BMP_pressure;BME280_temperature;BME280_humidity;BME280_pressure;Samples;Min_cycle;Max_cycle;Signal;HPM_P1;HPM_P2
2023/03/08 00:00:30;;;;;;;22.75;10.10;;;;;;;;;;5026966;28;20029;-54
2023/03/08 00:02:56;;;;;;;21.90;9.40;;;;;;;;;;5027393;28;20021;-54
2023/03/08 00:05:22;;;;;;;23.80;10.35;;;;;;;;;;5024128;28;20814;-56
2023/03/08 00:07:47;;;;;;;26.98;9.60;;;;;;;;;;5026413;28;20121;-54
2023/03/08 00:10:13;;;;;;;24.65;10.32;;;;;;;;;;5026437;28;20061;-55
2023/03/08 00:12:38;;;;;;;27.08;11.10;;;;;;;;;;5025232;28;20029;-51
2023/03/08 00:15:04;;;;;;;21.88;10.07;;;;;;;;;;5028056;28;20031;-54
2023/03/08 00:17:29;;;;;;;25.60;10.60;;;;;;;;;;5026226;28;20041;-53
2023/03/08 00:19:56;;;;;;;22.02;9.98;;;;;;;;;;5026621;28;20038;-56
2023/03/08 00:22:21;;;;;;;22.05;10.18;;;;;;;;;;5024201;28;20034;-58
2023/03/08 00:24:46;;;;;;;24.63;10.02;;;;;;;;;;5027233;28;21057;-56
2023/03/08 00:27:12;;;;;;;28.65;11.02;;;;;;;;;;5025715;28;20394;-53
2023/03/08 00:29:38;;;;;;;25.50;9.82;;;;;;;;;;5027579;28;20372;-52
2023/03/08 00:32:03;;;;;;;22.98;9.60;;;;;;;;;;5027228;28;20497;-57
2023/03/08 00:34:29;;;;;;;38.42;18.20;;;;;;;;;;5029544;28;20025;-54
2023/03/08 00:36:54;;;;;;;25.25;10.85;;;;;;;;;;5023925;28;20072;-59
2023/03/08 00:39:19;;;;;;;30.67;13.13;;;;;;;;;;5006674;28;20713;-60
2023/03/08 00:41:44;;;;;;;28.40;11.10;;;;;;;;;;5024965;28;20040;-55
2023/03/08 00:44:10;;;;;;;23.55;10.85;;;;;;;;;;5024826;28;20029;-56
2023/03/08 00:46:35;;;;;;;23.02;10.10;;;;;;;;;;5027292;28;20485;-55
2023/03/08 00:49:00;;;;;;;29.08;11.75;;;;;;;;;;5024508;28;20026;-55
2023/03/08 00:51:26;;;;;;;29.13;10.20;;;;;;;;;;5025336;28;20374;-54
2023/03/08 00:53:51;;;;;;;29.35;10.93;;;;;;;;;;5027078;28;20041;-52
2023/03/08 00:56:17;;;;;;;26.23;10.50;;;;;;;;;;5023311;28;20733;-55
2023/03/08 00:58:42;;;;;;;25.50;10.93;;;;;;;;;;5020007;28;20057;-54
2023/03/08 01:01:10;;;;;;;24.23;10.57;;;;;;;;;;5026174;28;20141;-59
2023/03/08 01:03:36;;;;;;;26.85;10.95;;;;;;;;;;5023429;28;20030;-57
2023/03/08 01:06:06;;;;;;;29.25;10.75;;;;;;;;;;5023624;28;20022;-54
2023/03/08 01:08:31;;;;;;;22.52;11.32;;;;;;;;;;5023216;28;20034;-55
2023/03/08 01:10:58;;;;;;;24.80;12.32;;;;;;;;;;5023453;28;20029;-56
2023/03/08 01:13:24;;;;;;;26.77;10.30;;;;;;;;;;5008172;28;20033;-51
2023/03/08 01:15:50;;;;;;;27.77;11.32;;;;;;;;;;5025130;28;20032;-61
2023/03/08 01:18:15;;;;;;;26.60;10.85;;;;;;;;;;5015489;28;20044;-54
2023/03/08 01:20:41;;;;;;;27.00;11.40;;;;;;;;;;5023064;28;20147;-53
2023/03/08 01:23:06;;;;;;;26.85;10.90;;;;;;;;;;5022381;28;20038;-56
2023/03/08 01:25:32;;;;;;;27.52;11.05;;;;;;;;;;5023750;28;20061;-52
2023/03/08 01:27:57;;;;;;;29.40;11.63;;;;;;;;;;5021453;28;20044;-57
2023/03/08 01:30:23;;;;;;;34.40;12.68;;;;;;;;;;5023492;28;20037;-57
2023/03/08 01:32:48;;;;;;;24.20;10.80;;;;;;;;;;5022180;28;20401;-53
2023/03/08 01:35:13;;;;;;;30.08;11.98;;;;;;;;;;5024659;28;20079;-58
2023/03/08 01:37:39;;;;;;;27.00;10.73;;;;;;;;;;5039145;28;20037;-52
2023/03/08 01:40:04;;;;;;;26.45;11.10;;;;;;;;;;5022578;28;20364;-56
2023/03/08 01:42:30;;;;;;;26.85;12.07;;;;;;;;;;5025573;28;20033;-52
2023/03/08 01:44:55;;;;;;;27.13;11.32;;;;;;;;;;5032039;28;20112;-55
2023/03/08 01:47:22;;;;;;;28.58;10.63;;;;;;;;;;5024638;28;20021;-52
2023/03/08 01:50:09;;;;;;;31.33;12.45;;;;;;;;;;5020688;28;20052;-50
2023/03/08 01:52:38;;;;;;;27.70;12.10;;;;;;;;;;5029262;28;21057;-52
2023/03/08 01:55:04;;;;;;;32.30;11.63;;;;;;;;;;5022672;28;20034;-57
2023/03/08 01:57:37;;;;;;;29.20;11.70;;;;;;;;;;5023504;28;20034;-54
2023/03/08 02:00:08;;;;;;;24.90;10.95;;;;;;;;;;5023445;28;20118;-56
2023/03/08 02:02:43;;;;;;;32.00;12.80;;;;;;;;;;5021477;28;20094;-50
2023/03/08 02:05:10;;;;;;;31.80;13.00;;;;;;;;;;5029942;28;20498;-56
2023/03/08 02:07:36;;;;;;;33.13;12.90;;;;;;;;;;5021682;28;20881;-52
2023/03/08 02:10:02;;;;;;;29.15;12.35;;;;;;;;;;5022709;28;20041;-53
2023/03/08 02:12:27;;;;;;;25.20;11.48;;;;;;;;;;5023057;28;20053;-55
2023/03/08 02:14:53;;;;;;;29.63;12.02;;;;;;;;;;5022435;28;20040;-53
2023/03/08 02:17:21;;;;;;;28.83;12.43;;;;;;;;;;5005549;28;20088;-53
2023/03/08 02:19:54;;;;;;;35.72;13.13;;;;;;;;;;5020146;28;20033;-54
2023/03/08 02:22:20;;;;;;;32.83;13.32;;;;;;;;;;5037849;28;20033;-53
2023/03/08 02:24:45;;;;;;;31.92;13.77;;;;;;;;;;5022754;28;20116;-52
2023/03/08 02:27:19;;;;;;;33.03;13.68;;;;;;;;;;5024818;28;20465;-56
2023/03/08 02:29:44;;;;;;;25.58;11.80;;;;;;;;;;5020490;28;20030;-56
2023/03/08 02:32:10;;;;;;;32.70;12.10;;;;;;;;;;5006006;28;20040;-54
2023/03/08 02:34:35;;;;;;;30.10;12.73;;;;;;;;;;5022039;28;20035;-54
2023/03/08 02:37:01;;;;;;;26.75;12.45;;;;;;;;;;5024812;28;20034;-51
2023/03/08 02:39:26;;;;;;;28.40;11.38;;;;;;;;;;5020067;28;20334;-57
2023/03/08 02:41:53;;;;;;;33.97;12.35;;;;;;;;;;5019479;28;20029;-53
2023/03/08 02:44:18;;;;;;;27.92;11.70;;;;;;;;;;5022270;28;20030;-55
2023/03/08 02:46:44;;;;;;;28.67;12.05;;;;;;;;;;5023792;28;20115;-51
2023/03/08 02:49:10;;;;;;;26.08;11.88;;;;;;;;;;5020091;28;20021;-54
2023/03/08 02:51:35;;;;;;;30.40;11.77;;;;;;;;;;5022243;28;20037;-54
2023/03/08 02:54:00;;;;;;;30.05;12.45;;;;;;;;;;5035247;28;20025;-59
2023/03/08 02:56:25;;;;;;;29.08;11.68;;;;;;;;;;5039331;28;20107;-55
2023/03/08 02:58:51;;;;;;;26.60;11.90;;;;;;;;;;5028440;28;20056;-53
2023/03/08 03:01:16;;;;;;;33.45;11.50;;;;;;;;;;5017118;28;20103;-58
2023/03/08 03:03:42;;;;;;;27.30;11.50;;;;;;;;;;5033106;28;20075;-56
2023/03/08 03:06:14;;;;;;;31.83;11.85;;;;;;;;;;5024162;28;20045;-53
2023/03/08 03:08:42;;;;;;;27.25;11.73;;;;;;;;;;5037638;28;20033;-57
2023/03/08 03:11:16;;;;;;;30.70;11.80;;;;;;;;;;5010284;28;20061;-56
2023/03/08 03:13:41;;;;;;;34.22;11.48;;;;;;;;;;5023869;28;20041;-52
2023/03/08 03:16:13;;;;;;;29.52;11.43;;;;;;;;;;5022098;28;20064;-56
2023/03/08 03:18:39;;;;;;;28.30;11.45;;;;;;;;;;5024610;28;20049;-54
2023/03/08 03:21:06;;;;;;;22.77;10.45;;;;;;;;;;5024211;28;20029;-56
2023/03/08 03:23:32;;;;;;;28.33;11.18;;;;;;;;;;5024549;28;20504;-51
2023/03/08 03:26:08;;;;;;;24.60;10.80;;;;;;;;;;5019474;28;20029;-53
2023/03/08 03:28:34;;;;;;;23.75;11.48;;;;;;;;;;5025409;28;20141;-55
2023/03/08 03:31:01;;;;;;;24.45;10.65;;;;;;;;;;5022942;28;20026;-56
2023/03/08 03:33:26;;;;;;;28.35;11.10;;;;;;;;;;5024352;28;20044;-57
2023/03/08 03:35:53;;;;;;;27.00;11.32;;;;;;;;;;5027042;28;20025;-52
2023/03/08 03:38:18;;;;;;;28.95;10.95;;;;;;;;;;5025097;28;20164;-61
2023/03/08 03:40:44;;;;;;;29.83;11.57;;;;;;;;;;5016263;28;20056;-60
2023/03/08 03:43:10;;;;;;;31.58;12.35;;;;;;;;;;5026020;28;20065;-59
2023/03/08 03:45:35;;;;;;;29.10;12.25;;;;;;;;;;5023961;28;20068;-60
2023/03/08 03:48:00;;;;;;;26.73;10.98;;;;;;;;;;5033223;28;20029;-56
2023/03/08 03:50:26;;;;;;;26.50;11.63;;;;;;;;;;5026023;28;20029;-57
2023/03/08 03:53:00;;;;;;;30.83;11.57;;;;;;;;;;5010088;28;20033;-53
2023/03/08 03:55:26;;;;;;;25.45;10.50;;;;;;;;;;5026680;28;20632;-60
2023/03/08 03:57:52;;;;;;;26.20;10.40;;;;;;;;;;5026033;28;20033;-55
2023/03/08 04:00:20;;;;;;;26.10;11.93;;;;;;;;;;5025963;28;20044;-53
2023/03/08 04:02:54;;;;;;;24.27;10.38;;;;;;;;;;5010843;28;20041;-61
2023/03/08 04:05:20;;;;;;;27.30;10.48;;;;;;;;;;5026376;28;20034;-58
2023/03/08 04:07:49;;;;;;;26.17;10.02;;;;;;;;;;5024586;28;20492;-60
2023/03/08 04:10:15;;;;;;;28.35;10.93;;;;;;;;;;5026730;28;20044;-53
2023/03/08 04:12:42;;;;;;;30.97;12.60;;;;;;;;;;5029816;28;20038;-58
2023/03/08 04:15:07;;;;;;;26.05;10.43;;;;;;;;;;5026148;28;20037;-54
2023/03/08 04:17:33;;;;;;;31.85;12.30;;;;;;;;;;5025556;28;20053;-56
2023/03/08 04:19:58;;;;;;;27.70;12.13;;;;;;;;;;5024874;28;20120;-56
2023/03/08 04:22:26;;;;;;;23.85;10.95;;;;;;;;;;5027878;28;20030;-57
2023/03/08 04:24:58;;;;;;;25.98;10.88;;;;;;;;;;5025513;28;20030;-56
2023/03/08 04:27:31;;;;;;;24.23;10.68;;;;;;;;;;5023758;28;20474;-56
2023/03/08 04:29:57;;;;;;;28.58;11.23;;;;;;;;;;5027063;28;20040;-57
2023/03/08 04:32:22;;;;;;;27.70;11.02;;;;;;;;;;5025932;28;20052;-57
2023/03/08 04:34:52;;;;;;;23.27;10.63;;;;;;;;;;5008574;28;20052;-55
2023/03/08 04:37:20;;;;;;;32.35;12.15;;;;;;;;;;5027659;28;20082;-54
2023/03/08 04:39:50;;;;;;;31.27;12.50;;;;;;;;;;5026706;28;20037;-58
2023/03/08 04:42:16;;;;;;;33.88;13.20;;;;;;;;;;5009836;28;20048;-52
2023/03/08 04:44:41;;;;;;;40.10;14.35;;;;;;;;;;5024026;28;20064;-53
2023/03/08 04:47:07;;;;;;;39.80;14.68;;;;;;;;;;5024122;28;20040;-56
2023/03/08 04:49:41;;;;;;;37.05;12.77;;;;;;;;;;5023554;28;20445;-57
2023/03/08 04:52:06;;;;;;;31.70;12.50;;;;;;;;;;5010030;28;20046;-56
2023/03/08 04:54:34;;;;;;;39.25;13.50;;;;;;;;;;5024336;28;20040;-53
2023/03/08 04:57:03;;;;;;;30.38;12.25;;;;;;;;;;5029155;28;20036;-53
2023/03/08 04:59:30;;;;;;;33.38;13.07;;;;;;;;;;5022478;28;20580;-53
2023/03/08 05:01:59;;;;;;;37.95;12.93;;;;;;;;;;5025473;28;20042;-60
2023/03/08 05:04:24;;;;;;;37.83;13.48;;;;;;;;;;5025254;28;20040;-58
2023/03/08 05:06:50;;;;;;;33.10;12.93;;;;;;;;;;5040711;28;20103;-54
2023/03/08 05:09:20;;;;;;;29.92;11.95;;;;;;;;;;5026447;28;20041;-56
2023/03/08 05:11:48;;;;;;;30.80;12.30;;;;;;;;;;5024283;28;20046;-53
2023/03/08 05:14:14;;;;;;;28.92;12.32;;;;;;;;;;5024299;28;20041;-55
2023/03/08 05:16:39;;;;;;;28.52;11.50;;;;;;;;;;5026453;28;20037;-54
2023/03/08 05:19:05;;;;;;;28.30;11.38;;;;;;;;;;5021756;28;20037;-50
2023/03/08 05:21:35;;;;;;;34.05;12.85;;;;;;;;;;5023602;28;20088;-56
2023/03/08 05:24:01;;;;;;;44.05;14.27;;;;;;;;;;5022976;28;20022;-52
2023/03/08 05:26:30;;;;;;;36.13;14.60;;;;;;;;;;5033426;28;20393;-55
2023/03/08 05:28:55;;;;;;;35.95;13.60;;;;;;;;;;5023930;28;20459;-58
2023/03/08 05:31:24;;;;;;;36.65;14.85;;;;;;;;;;5040307;28;20037;-54
2023/03/08 05:33:52;;;;;;;34.88;12.98;;;;;;;;;;5006647;28;20041;-59
2023/03/08 05:36:25;;;;;;;40.70;15.50;;;;;;;;;;5040950;28;20475;-54
2023/03/08 05:38:53;;;;;;;32.63;14.27;;;;;;;;;;5032656;28;20112;-58
2023/03/08 05:41:21;;;;;;;41.35;15.52;;;;;;;;;;5023419;28;20022;-52
2023/03/08 05:43:49;;;;;;;36.78;15.68;;;;;;;;;;5021499;28;21241;-53
2023/03/08 05:46:16;;;;;;;41.95;15.60;;;;;;;;;;5025843;28;20044;-55
2023/03/08 05:48:42;;;;;;;;;;;;;;;;;;5023959;28;20029;-57
2023/03/08 05:51:09;;;;;;;35.33;14.33;;;;;;;;;;5024407;28;19932;-57
2023/03/08 05:53:35;;;;;;;43.42;15.43;;;;;;;;;;5039211;28;20307;-55
2023/03/08 05:56:08;;;;;;;39.83;16.00;;;;;;;;;;5021495;28;20033;-53
2023/03/08 05:58:35;;;;;;;38.65;14.98;;;;;;;;;;5038221;28;20036;-58
2023/03/08 06:01:11;;;;;;;33.30;14.60;;;;;;;;;;5039031;28;20040;-54
2023/03/08 06:03:36;;;;;;;38.85;15.25;;;;;;;;;;5031598;28;20095;-55
2023/03/08 06:06:02;;;;;;;40.92;16.73;;;;;;;;;;5021569;28;20029;-55
2023/03/08 06:08:27;;;;;;;37.63;17.25;;;;;;;;;;5007626;28;20112;-54
2023/03/08 06:10:53;;;;;;;49.05;18.45;;;;;;;;;;5019854;28;20065;-52
2023/03/08 06:13:19;;;;;;;39.35;15.98;;;;;;;;;;5012805;28;20043;-54
2023/03/08 06:15:45;;;;;;;41.65;16.42;;;;;;;;;;5015214;28;20032;-53
2023/03/08 06:18:11;;;;;;;41.25;16.42;;;;;;;;;;5021616;28;20117;-54
2023/03/08 06:20:36;;;;;;;40.58;16.60;;;;;;;;;;5022049;28;20120;-52
2023/03/08 06:23:01;;;;;;;45.13;15.45;;;;;;;;;;5023669;28;20490;-50
2023/03/08 06:25:28;;;;;;;33.55;14.55;;;;;;;;;;5021767;28;20075;-56
2023/03/08 06:27:54;;;;;;;38.38;14.93;;;;;;;;;;5006137;28;20033;-55
2023/03/08 06:30:26;;;;;;;44.08;17.08;;;;;;;;;;5035816;28;20033;-59
2023/03/08 06:32:52;;;;;;;39.40;16.08;;;;;;;;;;5019975;28;20045;-53
2023/03/08 06:35:18;;;;;;;38.90;15.60;;;;;;;;;;5022855;28;20038;-59
2023/03/08 06:37:49;;;;;;;40.30;15.55;;;;;;;;;;5025708;28;20151;-59
2023/03/08 06:40:15;;;;;;;41.22;15.38;;;;;;;;;;5024386;28;20120;-55
2023/03/08 06:42:40;;;;;;;35.42;14.90;;;;;;;;;;5019640;28;20454;-50
2023/03/08 06:45:06;;;;;;;32.13;14.32;;;;;;;;;;5021823;28;20029;-52
2023/03/08 06:47:31;;;;;;;34.35;14.70;;;;;;;;;;5022102;28;20033;-56
2023/03/08 06:49:57;;;;;;;41.78;17.10;;;;;;;;;;5020654;28;20088;-58
2023/03/08 06:52:23;;;;;;;39.88;16.65;;;;;;;;;;5034922;28;20539;-57
2023/03/08 06:54:48;;;;;;;40.10;15.27;;;;;;;;;;4997219;28;20120;-59
2023/03/08 06:57:15;;;;;;;38.70;15.75;;;;;;;;;;5018087;28;20029;-54
2023/03/08 06:59:40;;;;;;;39.05;15.68;;;;;;;;;;5022263;28;20029;-56
2023/03/08 07:02:05;;;;;;;37.65;15.27;;;;;;;;;;5023779;28;20386;-57
2023/03/08 07:04:31;;;;;;;43.47;16.08;;;;;;;;;;5023146;28;20697;-58
2023/03/08 07:06:56;;;;;;;42.63;15.80;;;;;;;;;;5016311;28;20152;-53
2023/03/08 07:09:21;;;;;;;38.78;15.48;;;;;;;;;;5018704;28;20032;-58
2023/03/08 07:11:46;;;;;;;45.28;16.67;;;;;;;;;;5028022;28;20033;-58
2023/03/08 07:14:12;;;;;;;63.90;22.80;;;;;;;;;;5028689;28;20526;-57
2023/03/08 07:16:37;;;;;;;71.90;27.85;;;;;;;;;;5025056;28;20025;-54
2023/03/08 07:19:03;;;;;;;52.53;19.40;;;;;;;;;;5027631;28;20033;-51
2023/03/08 07:21:28;;;;;;;44.13;17.48;;;;;;;;;;5027077;28;20546;-57
2023/03/08 07:23:53;;;;;;;49.95;19.38;;;;;;;;;;5029215;28;20045;-54
2023/03/08 07:26:19;;;;;;;44.58;16.67;;;;;;;;;;5024456;28;20091;-55
2023/03/08 07:28:46;;;;;;;51.33;19.15;;;;;;;;;;5025763;28;20037;-56
2023/03/08 07:31:12;;;;;;;50.70;18.42;;;;;;;;;;5026773;28;20437;-57
2023/03/08 07:33:37;;;;;;;48.47;17.75;;;;;;;;;;5029219;28;20037;-54
2023/03/08 07:36:03;;;;;;;48.50;16.85;;;;;;;;;;5029309;28;20419;-57
2023/03/08 07:38:28;;;;;;;46.50;18.42;;;;;;;;;;5030181;28;20382;-57
2023/03/08 07:40:54;;;;;;;47.30;17.73;;;;;;;;;;5028771;28;20040;-59
2023/03/08 07:43:20;;;;;;;60.05;19.40;;;;;;;;;;5027363;28;20112;-54
2023/03/08 07:45:57;;;;;;;51.67;18.67;;;;;;;;;;5028642;28;20045;-55
2023/03/08 07:48:22;;;;;;;;;;;;;;;;;;5025930;28;20091;-53
2023/03/08 07:50:48;;;;;;;46.37;17.67;;;;;;;;;;5027217;28;19921;-54
2023/03/08 07:53:13;;;;;;;54.05;18.48;;;;;;;;;;5027924;28;20411;-57
2023/03/08 07:55:39;;;;;;;58.70;19.55;;;;;;;;;;5028399;28;20057;-57
2023/03/08 07:58:04;;;;;;;64.93;20.25;;;;;;;;;;5027366;28;20116;-54
2023/03/08 08:00:29;;;;;;;55.45;20.35;;;;;;;;;;5028379;28;20065;-53
2023/03/08 08:02:56;;;;;;;59.60;21.20;;;;;;;;;;5028541;28;20025;-61
2023/03/08 08:05:21;;;;;;;58.00;20.90;;;;;;;;;;5025852;28;20112;-52
2023/03/08 08:07:47;;;;;;;57.38;20.05;;;;;;;;;;5027359;28;20103;-58
2023/03/08 08:10:12;;;;;;;64.97;21.85;;;;;;;;;;5028505;28;20033;-57
2023/03/08 08:12:38;;;;;;;70.85;23.00;;;;;;;;;;5030659;28;20037;-54
2023/03/08 08:15:03;;;;;;;68.38;22.10;;;;;;;;;;5030022;28;20547;-57
2023/03/08 08:17:28;;;;;;;64.30;22.42;;;;;;;;;;5028528;28;20039;-51
2023/03/08 08:19:54;;;;;;;75.22;26.00;;;;;;;;;;5011221;28;20045;-56
2023/03/08 08:22:19;;;;;;;82.43;27.17;;;;;;;;;;5027519;28;20029;-59
2023/03/08 08:24:44;;;;;;;79.18;27.00;;;;;;;;;;5028394;28;20040;-54
2023/03/08 08:27:10;;;;;;;72.50;23.52;;;;;;;;;;5027309;28;20029;-54
2023/03/08 08:29:35;;;;;;;74.38;24.33;;;;;;;;;;5028933;28;20142;-57
2023/03/08 08:32:01;;;;;;;72.97;25.15;;;;;;;;;;5028168;28;20116;-55
2023/03/08 08:34:27;;;;;;;71.80;23.83;;;;;;;;;;5028721;28;20065;-50
2023/03/08 08:36:52;;;;;;;72.18;24.08;;;;;;;;;;5028854;28;20069;-57
2023/03/08 08:39:17;;;;;;;82.95;24.55;;;;;;;;;;5029093;28;20716;-62
2023/03/08 08:41:43;;;;;;;73.60;25.15;;;;;;;;;;5027323;28;20037;-52
2023/03/08 08:44:08;;;;;;;82.45;26.20;;;;;;;;;;5027511;28;20033;-54
2023/03/08 08:46:33;;;;;;;87.43;26.52;;;;;;;;;;5022545;28;20061;-52
2023/03/08 08:48:59;;;;;;;82.97;27.48;;;;;;;;;;5024025;28;20043;-52
2023/03/08 08:51:25;;;;;;;70.88;24.60;;;;;;;;;;5023614;28;20041;-56
2023/03/08 08:53:50;;;;;;;76.38;25.55;;;;;;;;;;5027118;28;20036;-56
2023/03/08 08:56:15;;;;;;;76.03;25.48;;;;;;;;;;5023643;28;20045;-54
2023/03/08 08:58:41;;;;;;;74.43;26.88;;;;;;;;;;5024079;28;20521;-52
2023/03/08 09:15:00;;;;;;;82.68;25.65;;;;;;;;;;5023980;28;20600;-55
2023/03/08 09:17:25;;;;;;;80.55;26.60;;;;;;;;;;5023742;28;20053;-56
2023/03/08 09:19:50;;;;;;;96.50;26.85;;;;;;;;;;5023894;28;20034;-57
2023/03/08 09:22:16;;;;;;;86.28;27.30;;;;;;;;;;5023066;28;20026;-56
2023/03/08 09:24:41;;;;;;;81.10;26.98;;;;;;;;;;5023263;28;20116;-55
2023/03/08 09:27:07;;;;;;;85.38;27.58;;;;;;;;;;5020186;28;20368;-56
2023/03/08 09:29:32;;;;;;;94.05;29.92;;;;;;;;;;5022941;28;20484;-52
2023/03/08 09:31:58;;;;;;;99.28;32.45;;;;;;;;;;5023766;28;20113;-54
2023/03/08 09:34:23;;;;;;;113.07;34.63;;;;;;;;;;5023399;28;20034;-51
2023/03/08 09:36:49;;;;;;;96.10;29.88;;;;;;;;;;5025850;28;20067;-53
2023/03/08 09:39:14;;;;;;;84.40;29.17;;;;;;;;;;5025667;28;20044;-55
2023/03/08 09:41:42;;;;;;;78.60;26.25;;;;;;;;;;5024843;28;20040;-51
2023/03/08 09:44:08;;;;;;;84.35;28.48;;;;;;;;;;5021657;28;20033;-51
2023/03/08 09:46:37;;;;;;;101.38;32.53;;;;;;;;;;5022344;28;20053;-53
2023/03/08 09:49:04;;;;;;;100.88;34.78;;;;;;;;;;5023300;28;20072;-55
2023/03/08 09:51:33;;;;;;;106.35;33.33;;;;;;;;;;5021437;28;20041;-56
2023/03/08 09:54:02;;;;;;;103.53;34.17;;;;;;;;;;5023190;28;20041;-61
2023/03/08 09:56:35;;;;;;;98.00;30.08;;;;;;;;;;5023738;28;20030;-57
2023/03/08 09:59:00;;;;;;;92.75;28.70;;;;;;;;;;5023775;28;20151;-53
2023/03/08 10:01:37;;;;;;;83.32;29.67;;;;;;;;;;5022764;28;20033;-54
2023/03/08 10:04:21;;;;;;;83.15;28.83;;;;;;;;;;5022098;28;20070;-57
2023/03/08 10:06:46;;;;;;;83.15;28.65;;;;;;;;;;5022490;28;20021;-54
2023/03/08 10:09:47;;;;;;;77.45;27.17;;;;;;;;;;5024040;28;20033;-59
2023/03/08 10:12:12;;;;;;;76.18;27.05;;;;;;;;;;4999575;28;20042;-53
2023/03/08 10:14:41;;;;;;;77.60;28.30;;;;;;;;;;5016715;28;20056;-54
2023/03/08 10:17:16;;;;;;;79.47;28.52;;;;;;;;;;5022441;28;20033;-50
2023/03/08 10:20:03;;;;;;;69.38;23.27;;;;;;;;;;5023593;28;20040;-56
2023/03/08 10:22:29;;;;;;;67.68;22.50;;;;;;;;;;5024183;28;20037;-60
2023/03/08 10:25:13;;;;;;;58.08;23.42;;;;;;;;;;5022363;28;20033;-54
2023/03/08 10:27:39;;;;;;;61.35;22.60;;;;;;;;;;5021802;28;20091;-49
2023/03/08 10:30:12;;;;;;;48.10;19.40;;;;;;;;;;5023241;28;20120;-52
2023/03/08 10:32:41;;;;;;;48.28;19.35;;;;;;;;;;5023296;28;20026;-54
2023/03/08 10:35:06;;;;;;;47.00;19.58;;;;;;;;;;5025972;28;20057;-52
2023/03/08 10:37:32;;;;;;;52.08;19.92;;;;;;;;;;5019430;28;20461;-57
2023/03/08 10:40:02;;;;;;;49.08;20.20;;;;;;;;;;5020257;28;20450;-57
2023/03/08 10:42:28;;;;;;;45.03;19.02;;;;;;;;;;5020669;28;20037;-59
2023/03/08 10:44:59;;;;;;;44.55;19.15;;;;;;;;;;5022204;28;20860;-57
2023/03/08 10:47:26;;;;;;;42.05;19.30;;;;;;;;;;5022692;28;20040;-57
2023/03/08 10:50:10;;;;;;;41.23;18.50;;;;;;;;;;5021093;28;20411;-55
2023/03/08 10:52:35;;;;;;;39.00;15.85;;;;;;;;;;5021132;28;20789;-58
2023/03/08 10:55:04;;;;;;;38.08;15.35;;;;;;;;;;5020850;28;20047;-53
2023/03/08 10:57:29;;;;;;;35.88;14.38;;;;;;;;;;5022448;28;20068;-55
2023/03/08 10:59:57;;;;;;;29.63;13.23;;;;;;;;;;5020582;28;20203;-61
2023/03/08 11:02:22;;;;;;;38.70;18.00;;;;;;;;;;5030179;28;20040;-59
2023/03/08 11:04:52;;;;;;;28.73;13.73;;;;;;;;;;5022506;28;20025;-57
2023/03/08 11:07:25;;;;;;;26.05;11.82;;;;;;;;;;5022797;28;20474;-52
2023/03/08 11:09:50;;;;;;;30.52;12.90;;;;;;;;;;5021956;28;20028;-56
2023/03/08 11:12:23;;;;;;;27.77;12.68;;;;;;;;;;5021470;28;20045;-53
2023/03/08 11:14:49;;;;;;;25.95;12.25;;;;;;;;;;5021816;28;20384;-60
2023/03/08 11:17:20;;;;;;;30.52;12.32;;;;;;;;;;5023160;28;20670;-54
2023/03/08 11:20:09;;;;;;;26.42;11.65;;;;;;;;;;5020094;28;20026;-55
2023/03/08 11:22:37;;;;;;;23.77;11.07;;;;;;;;;;5022245;28;20086;-58
2023/03/08 11:25:12;;;;;;;20.40;10.52;;;;;;;;;;5020330;28;20231;-55
2023/03/08 11:27:37;;;;;;;23.25;10.02;;;;;;;;;;5022514;28;20086;-56
2023/03/08 11:30:21;;;;;;;24.05;10.25;;;;;;;;;;5019837;28;20121;-56
2023/03/08 11:33:01;;;;;;;22.38;10.82;;;;;;;;;;5022356;28;20045;-52
2023/03/08 11:35:36;;;;;;;19.48;9.73;;;;;;;;;;5024084;28;20035;-59
2023/03/08 11:38:16;;;;;;;20.40;8.80;;;;;;;;;;4993460;28;20045;-56
2023/03/08 11:41:00;;;;;;;16.08;8.85;;;;;;;;;;5020636;28;20037;-58
2023/03/08 11:43:25;;;;;;;19.45;7.68;;;;;;;;;;5021707;28;20033;-58
2023/03/08 11:45:54;;;;;;;14.52;7.30;;;;;;;;;;5017909;28;20029;-58
2023/03/08 11:48:25;;;;;;;15.40;7.45;;;;;;;;;;5023042;28;20100;-51
2023/03/08 11:50:50;;;;;;;14.68;7.68;;;;;;;;;;5023197;28;20046;-51
2023/03/08 11:53:18;;;;;;;13.95;6.28;;;;;;;;;;5023140;28;20042;-58
2023/03/08 11:55:46;;;;;;;22.35;7.70;;;;;;;;;;5026667;28;20395;-59
2023/03/08 11:58:14;;;;;;;12.88;6.90;;;;;;;;;;5027537;28;20545;-59
2023/03/08 12:00:40;;;;;;;7.75;4.82;;;;;;;;;;5024395;28;20059;-54
2023/03/08 12:03:13;;;;;;;12.23;4.53;;;;;;;;;;5024362;28;20083;-58
2023/03/08 12:05:41;;;;;;;9.52;4.05;;;;;;;;;;5023217;28;20033;-56
2023/03/08 12:08:09;;;;;;;8.55;3.70;;;;;;;;;;5024730;28;20025;-58
2023/03/08 12:10:40;;;;;;;8.00;3.17;;;;;;;;;;5022497;28;20037;-53
2023/03/08 12:13:14;;;;;;;6.40;2.80;;;;;;;;;;5024130;28;20034;-53
2023/03/08 12:15:50;;;;;;;5.85;2.75;;;;;;;;;;5025915;28;20030;-53
2023/03/08 12:18:35;;;;;;;5.35;2.35;;;;;;;;;;5025666;28;20494;-54
2023/03/08 12:21:15;;;;;;;7.55;2.22;;;;;;;;;;5025110;28;20084;-60
2023/03/08 12:23:53;;;;;;;5.85;2.47;;;;;;;;;;5024116;28;20029;-53
2023/03/08 12:26:20;;;;;;;5.20;2.40;;;;;;;;;;5025175;28;20029;-58
2023/03/08 12:28:46;;;;;;;;;;;;;;;;;;5008952;28;20632;-55
2023/03/08 12:31:21;;;;;;;5.85;2.50;;;;;;;;;;5025909;28;19917;-56
2023/03/08 12:33:47;;;;;;;5.60;2.25;;;;;;;;;;5024897;28;20120;-56
2023/03/08 12:36:12;;;;;;;4.57;2.20;;;;;;;;;;5024029;28;20182;-60
2023/03/08 12:38:41;;;;;;;5.38;2.38;;;;;;;;;;5023494;28;20032;-58
2023/03/08 12:41:19;;;;;;;4.60;2.88;;;;;;;;;;5023760;28;20033;-56
2023/03/08 12:43:44;;;;;;;7.20;3.25;;;;;;;;;;5022911;28;20618;-55
2023/03/08 12:46:10;;;;;;;7.32;3.28;;;;;;;;;;5024620;28;20796;-51
2023/03/08 12:48:41;;;;;;;5.97;2.85;;;;;;;;;;5024372;28;20029;-54
2023/03/08 12:51:13;;;;;;;11.52;4.50;;;;;;;;;;5021574;28;20037;-59
2023/03/08 12:53:50;;;;;;;7.78;3.53;;;;;;;;;;5005603;28;20040;-57
2023/03/08 12:56:21;;;;;;;4.43;2.38;;;;;;;;;;5024335;28;20542;-56
2023/03/08 12:58:55;;;;;;;7.55;2.80;;;;;;;;;;5022851;28;20025;-59
2023/03/08 13:01:30;;;;;;;7.88;2.90;;;;;;;;;;5022814;28;20119;-57
2023/03/08 13:03:55;;;;;;;5.10;2.67;;;;;;;;;;5022956;28;20029;-58
2023/03/08 13:06:26;;;;;;;5.32;2.47;;;;;;;;;;5023379;28;20095;-55
2023/03/08 13:08:54;;;;;;;5.05;2.63;;;;;;;;;;5021350;28;20113;-54
2023/03/08 13:11:21;;;;;;;6.57;2.63;;;;;;;;;;5026641;28;21030;-57
2023/03/08 13:13:56;;;;;;;5.88;2.88;;;;;;;;;;5023682;28;20049;-53
2023/03/08 13:16:28;;;;;;;6.78;2.78;;;;;;;;;;5024112;28;20138;-55
2023/03/08 13:19:00;;;;;;;6.13;2.63;;;;;;;;;;5025458;28;20188;-56
2023/03/08 13:21:29;;;;;;;5.55;2.63;;;;;;;;;;5024579;28;20040;-59
2023/03/08 13:23:59;;;;;;;10.38;3.15;;;;;;;;;;5025382;28;20030;-56
2023/03/08 13:26:37;;;;;;;5.55;2.75;;;;;;;;;;5024931;28;20463;-57
2023/03/08 13:29:10;;;;;;;6.20;2.55;;;;;;;;;;5023144;28;20166;-53
2023/03/08 13:31:35;;;;;;;5.00;2.70;;;;;;;;;;5026363;28;20025;-54
2023/03/08 13:34:01;;;;;;;7.30;3.55;;;;;;;;;;5025989;28;20040;-54
2023/03/08 13:36:27;;;;;;;6.43;2.95;;;;;;;;;;5023214;28;20337;-55
2023/03/08 13:39:00;;;;;;;8.02;2.70;;;;;;;;;;5021487;28;20550;-59
2023/03/08 13:41:32;;;;;;;5.68;2.80;;;;;;;;;;5022725;28;20438;-58
2023/03/08 13:44:04;;;;;;;6.57;2.85;;;;;;;;;;5022768;28;20025;-55
2023/03/08 13:46:30;;;;;;;4.57;2.45;;;;;;;;;;5022536;28;20656;-57
2023/03/08 13:48:55;;;;;;;7.40;2.67;;;;;;;;;;5023284;28;20033;-55
2023/03/08 13:51:22;;;;;;;5.50;2.90;;;;;;;;;;5024415;28;20553;-59
2023/03/08 13:53:47;;;;;;;8.27;2.50;;;;;;;;;;5025431;28;20406;-57
2023/03/08 13:56:20;;;;;;;5.22;2.20;;;;;;;;;;5024508;28;20290;-57
2023/03/08 13:58:46;;;;;;;7.50;3.80;;;;;;;;;;5023017;28;20116;-60
2023/03/08 14:01:13;;;;;;;12.10;3.58;;;;;;;;;;5023035;28;20110;-58
2023/03/08 14:03:40;;;;;;;6.18;2.22;;;;;;;;;;5023830;28;20549;-58
2023/03/08 14:06:18;;;;;;;5.10;2.70;;;;;;;;;;5023954;28;20033;-59
2023/03/08 14:08:47;;;;;;;5.82;2.30;;;;;;;;;;5027778;28;20530;-58
2023/03/08 14:11:15;;;;;;;5.80;2.42;;;;;;;;;;5021858;28;20033;-56
2023/03/08 14:13:44;;;;;;;6.82;2.78;;;;;;;;;;5023225;28;20116;-60
2023/03/08 14:16:21;;;;;;;5.00;2.30;;;;;;;;;;5021900;28;20490;-60
2023/03/08 14:18:46;;;;;;;4.68;2.08;;;;;;;;;;5024896;28;20536;-61
2023/03/08 14:21:14;;;;;;;4.85;2.20;;;;;;;;;;5020993;28;20037;-60
2023/03/08 14:23:41;;;;;;;8.55;3.42;;;;;;;;;;5023611;28;20047;-60
2023/03/08 14:26:22;;;;;;;7.63;3.17;;;;;;;;;;5023466;28;20112;-59
2023/03/08 14:28:47;;;;;;;7.07;3.95;;;;;;;;;;5025483;28;20041;-58
2023/03/08 14:31:25;;;;;;;5.22;2.17;;;;;;;;;;5012639;28;20103;-59
2023/03/08 14:33:55;;;;;;;5.22;2.60;;;;;;;;;;5022724;28;20061;-59
2023/03/08 14:36:20;;;;;;;5.15;2.28;;;;;;;;;;5021224;28;20049;-61
2023/03/08 14:38:47;;;;;;;4.68;2.33;;;;;;;;;;5029028;28;20021;-59
2023/03/08 14:41:14;;;;;;;4.20;2.60;;;;;;;;;;5022585;28;20051;-58